sensor_id;sensor_type;location;lat;lon;timestamp;P1;durP1;ratioP1;P2;durP2;ratioP2
16270;SDS011;8243;49.048;8.396;2022-12-18T00:02:02;38.33;;;19.97;;
16270;SDS011;8243;49.048;8.396;2022-12-18T00:04:28;35.17;;;18.10;;
16270;SDS011;8243;49.048;8.396;2022-12-18T00:06:54;28.30;;;15.87;;
16270;SDS011;8243;49.048;8.396;2022-12-18T00:09:19;30.10;;;18.87;;
16270;SDS011;8243;49.048;8.396;2022-12-18T00:11:46;34.67;;;19.65;;
16270;SDS011;8243;49.048;8.396;2022-12-18T00:14:12;34.43;;;20.07;;
16270;SDS011;8243;49.048;8.396;2022-12-18T00:16:38;34.40;;;19.40;;
16270;SDS011;8243;49.048;8.396;2022-12-18T00:19:04;32.67;;;19.45;;
16270;SDS011;8243;49.048;8.396;2022-12-18T00:21:31;32.88;;;20.58;;
16270;SDS011;8243;49.048;8.396;2022-12-18T00:23:57;33.38;;;18.77;;
16270;SDS011;8243;49.048;8.396;2022-12-18T00:26:25;30.60;;;18.83;;
16270;SDS011;8243;49.048;8.396;2022-12-18T00:28:53;35.33;;;20.13;;
16270;SDS011;8243;49.048;8.396;2022-12-18T00:31:21;39.63;;;20.65;;
16270;SDS011;8243;49.048;8.396;2022-12-18T00:33:48;36.90;;;19.02;;
16270;SDS011;8243;49.048;8.396;2022-12-18T00:36:15;34.73;;;19.33;;
16270;SDS011;8243;49.048;8.396;2022-12-18T00:38:47;36.05;;;21.00;;
16270;SDS011;8243;49.048;8.396;2022-12-18T00:41:13;33.83;;;19.67;;
16270;SDS011;8243;49.048;8.396;2022-12-18T00:44:00;37.75;;;21.67;;
16270;SDS011;8243;49.048;8.396;2022-12-18T00:46:26;33.65;;;19.35;;
16270;SDS011;8243;49.048;8.396;2022-12-18T00:48:52;32.23;;;19.53;;
16270;SDS011;8243;49.048;8.396;2022-12-18T00:51:18;35.03;;;19.73;;
16270;SDS011;8243;49.048;8.396;2022-12-18T00:53:43;33.37;;;19.93;;
16270;SDS011;8243;49.048;8.396;2022-12-18T00:56:09;35.00;;;19.43;;
16270;SDS011;8243;49.048;8.396;2022-12-18T00:58:34;38.47;;;21.83;;
16270;SDS011;8243;49.048;8.396;2022-12-18T01:01:00;34.20;;;20.80;;
16270;SDS011;8243;49.048;8.396;2022-12-18T01:03:25;32.63;;;20.20;;
16270;SDS011;8243;49.048;8.396;2022-12-18T01:05:51;34.47;;;19.33;;
16270;SDS011;8243;49.048;8.396;2022-12-18T01:08:16;35.67;;;19.73;;
16270;SDS011;8243;49.048;8.396;2022-12-18T01:10:42;35.27;;;20.63;;
16270;SDS011;8243;49.048;8.396;2022-12-18T01:13:07;36.57;;;21.13;;
16270;SDS011;8243;49.048;8.396;2022-12-18T01:15:33;31.77;;;19.87;;
16270;SDS011;8243;49.048;8.396;2022-12-18T01:17:59;34.50;;;20.20;;
16270;SDS011;8243;49.048;8.396;2022-12-18T01:20:24;34.53;;;20.03;;
16270;SDS011;8243;49.048;8.396;2022-12-18T01:22:50;35.33;;;20.77;;
16270;SDS011;8243;49.048;8.396;2022-12-18T01:25:15;34.93;;;20.37;;
16270;SDS011;8243;49.048;8.396;2022-12-18T01:27:41;32.23;;;19.67;;
16270;SDS011;8243;49.048;8.396;2022-12-18T01:30:06;31.03;;;19.97;;
16270;SDS011;8243;49.048;8.396;2022-12-18T01:32:33;33.38;;;19.02;;
16270;SDS011;8243;49.048;8.396;2022-12-18T01:34:58;32.63;;;19.93;;
16270;SDS011;8243;49.048;8.396;2022-12-18T01:37:24;32.27;;;19.17;;
16270;SDS011;8243;49.048;8.396;2022-12-18T01:39:49;30.47;;;17.77;;
16270;SDS011;8243;49.048;8.396;2022-12-18T01:42:17;29.92;;;18.33;;
16270;SDS011;8243;49.048;8.396;2022-12-18T01:48:06;30.95;;;19.17;;
16270;SDS011;8243;49.048;8.396;2022-12-18T01:50:13;34.35;;;18.98;;
16270;SDS011;8243;49.048;8.396;2022-12-18T01:52:55;32.47;;;19.30;;
16270;SDS011;8243;49.048;8.396;2022-12-18T01:55:26;30.17;;;18.70;;
16270;SDS011;8243;49.048;8.396;2022-12-18T01:57:56;35.45;;;19.30;;
16270;SDS011;8243;49.048;8.396;2022-12-18T02:00:24;32.45;;;18.80;;
16270;SDS011;8243;49.048;8.396;2022-12-18T02:02:52;33.38;;;19.40;;
16270;SDS011;8243;49.048;8.396;2022-12-18T02:11:04;33.65;;;18.85;;
16270;SDS011;8243;49.048;8.396;2022-12-18T02:18:47;32.67;;;18.50;;
16270;SDS011;8243;49.048;8.396;2022-12-18T02:24:12;29.52;;;17.58;;
16270;SDS011;8243;49.048;8.396;2022-12-18T02:26:52;27.88;;;15.98;;
16270;SDS011;8243;49.048;8.396;2022-12-18T02:29:24;33.65;;;19.10;;
16270;SDS011;8243;49.048;8.396;2022-12-18T02:31:56;29.50;;;16.73;;
16270;SDS011;8243;49.048;8.396;2022-12-18T02:34:28;32.60;;;19.83;;
16270;SDS011;8243;49.048;8.396;2022-12-18T02:36:56;31.13;;;18.98;;
16270;SDS011;8243;49.048;8.396;2022-12-18T02:39:25;30.15;;;18.10;;
16270;SDS011;8243;49.048;8.396;2022-12-18T02:41:52;31.95;;;19.05;;
16270;SDS011;8243;49.048;8.396;2022-12-18T02:44:18;33.03;;;18.53;;
16270;SDS011;8243;49.048;8.396;2022-12-18T02:46:45;35.53;;;18.87;;
16270;SDS011;8243;49.048;8.396;2022-12-18T02:49:26;29.85;;;18.45;;
16270;SDS011;8243;49.048;8.396;2022-12-18T02:55:22;31.92;;;17.98;;
16270;SDS011;8243;49.048;8.396;2022-12-18T02:57:55;32.58;;;18.17;;
16270;SDS011;8243;49.048;8.396;2022-12-18T03:00:41;27.98;;;17.35;;
16270;SDS011;8243;49.048;8.396;2022-12-18T03:05:51;32.15;;;17.45;;
16270;SDS011;8243;49.048;8.396;2022-12-18T03:08:21;29.80;;;17.02;;
16270;SDS011;8243;49.048;8.396;2022-12-18T03:10:57;27.33;;;16.80;;
16270;SDS011;8243;49.048;8.396;2022-12-18T03:13:37;30.33;;;16.23;;
16270;SDS011;8243;49.048;8.396;2022-12-18T03:16:10;29.10;;;16.90;;
16270;SDS011;8243;49.048;8.396;2022-12-18T03:18:42;34.47;;;18.83;;
16270;SDS011;8243;49.048;8.396;2022-12-18T03:21:14;30.63;;;17.85;;
16270;SDS011;8243;49.048;8.396;2022-12-18T03:23:47;29.38;;;16.17;;
16270;SDS011;8243;49.048;8.396;2022-12-18T03:26:16;29.30;;;17.90;;
16270;SDS011;8243;49.048;8.396;2022-12-18T03:28:51;28.45;;;16.10;;
16270;SDS011;8243;49.048;8.396;2022-12-18T03:31:20;31.65;;;18.13;;
16270;SDS011;8243;49.048;8.396;2022-12-18T03:33:52;30.27;;;18.00;;
16270;SDS011;8243;49.048;8.396;2022-12-18T03:36:23;31.98;;;17.80;;
16270;SDS011;8243;49.048;8.396;2022-12-18T03:38:50;26.92;;;16.83;;
16270;SDS011;8243;49.048;8.396;2022-12-18T03:49:24;29.55;;;17.75;;
16270;SDS011;8243;49.048;8.396;2022-12-18T03:52:04;29.13;;;16.38;;
16270;SDS011;8243;49.048;8.396;2022-12-18T03:54:51;30.50;;;16.58;;
16270;SDS011;8243;49.048;8.396;2022-12-18T03:57:20;29.80;;;16.70;;
16270;SDS011;8243;49.048;8.396;2022-12-18T03:59:50;28.35;;;17.13;;
16270;SDS011;8243;49.048;8.396;2022-12-18T04:02:20;29.38;;;16.90;;
16270;SDS011;8243;49.048;8.396;2022-12-18T04:04:48;28.27;;;16.25;;
16270;SDS011;8243;49.048;8.396;2022-12-18T04:07:18;28.17;;;15.93;;
16270;SDS011;8243;49.048;8.396;2022-12-18T04:09:45;25.55;;;16.13;;
16270;SDS011;8243;49.048;8.396;2022-12-18T04:12:11;26.88;;;15.90;;
16270;SDS011;8243;49.048;8.396;2022-12-18T04:14:37;29.37;;;16.53;;
16270;SDS011;8243;49.048;8.396;2022-12-18T04:17:02;27.77;;;16.10;;
16270;SDS011;8243;49.048;8.396;2022-12-18T04:19:28;26.70;;;16.70;;
16270;SDS011;8243;49.048;8.396;2022-12-18T04:21:54;29.70;;;16.47;;
16270;SDS011;8243;49.048;8.396;2022-12-18T04:24:19;30.50;;;16.87;;
16270;SDS011;8243;49.048;8.396;2022-12-18T04:26:45;32.63;;;16.47;;
16270;SDS011;8243;49.048;8.396;2022-12-18T04:29:11;29.50;;;16.63;;
16270;SDS011;8243;49.048;8.396;2022-12-18T04:31:36;27.30;;;15.20;;
16270;SDS011;8243;49.048;8.396;2022-12-18T04:34:02;28.33;;;16.27;;
16270;SDS011;8243;49.048;8.396;2022-12-18T04:36:28;29.33;;;17.00;;
16270;SDS011;8243;49.048;8.396;2022-12-18T04:38:54;31.27;;;17.60;;
16270;SDS011;8243;49.048;8.396;2022-12-18T04:41:20;27.10;;;14.20;;
16270;SDS011;8243;49.048;8.396;2022-12-18T04:43:46;27.13;;;15.00;;
16270;SDS011;8243;49.048;8.396;2022-12-18T04:46:11;25.93;;;16.10;;
16270;SDS011;8243;49.048;8.396;2022-12-18T04:48:37;27.37;;;16.20;;
16270;SDS011;8243;49.048;8.396;2022-12-18T04:51:03;29.97;;;16.53;;
16270;SDS011;8243;49.048;8.396;2022-12-18T04:53:29;29.00;;;16.50;;
16270;SDS011;8243;49.048;8.396;2022-12-18T04:56:08;27.20;;;15.33;;
16270;SDS011;8243;49.048;8.396;2022-12-18T04:58:37;30.25;;;16.52;;
16270;SDS011;8243;49.048;8.396;2022-12-18T05:01:04;25.60;;;15.82;;
16270;SDS011;8243;49.048;8.396;2022-12-18T05:03:30;29.17;;;16.07;;
16270;SDS011;8243;49.048;8.396;2022-12-18T05:05:56;27.35;;;15.30;;
16270;SDS011;8243;49.048;8.396;2022-12-18T05:08:21;21.37;;;13.10;;
16270;SDS011;8243;49.048;8.396;2022-12-18T05:10:47;26.07;;;15.43;;
16270;SDS011;8243;49.048;8.396;2022-12-18T05:13:12;29.10;;;16.73;;
16270;SDS011;8243;49.048;8.396;2022-12-18T05:15:38;24.10;;;15.07;;
16270;SDS011;8243;49.048;8.396;2022-12-18T05:18:04;25.03;;;15.37;;
16270;SDS011;8243;49.048;8.396;2022-12-18T05:20:30;26.73;;;15.73;;
16270;SDS011;8243;49.048;8.396;2022-12-18T05:22:56;29.90;;;15.18;;
16270;SDS011;8243;49.048;8.396;2022-12-18T05:25:22;24.23;;;14.67;;
16270;SDS011;8243;49.048;8.396;2022-12-18T05:27:48;27.27;;;15.10;;
16270;SDS011;8243;49.048;8.396;2022-12-18T05:30:14;25.03;;;15.20;;
16270;SDS011;8243;49.048;8.396;2022-12-18T05:32:40;28.70;;;15.55;;
16270;SDS011;8243;49.048;8.396;2022-12-18T05:35:07;30.33;;;16.13;;
16270;SDS011;8243;49.048;8.396;2022-12-18T05:37:34;26.60;;;14.60;;
16270;SDS011;8243;49.048;8.396;2022-12-18T05:39:59;26.80;;;14.53;;
16270;SDS011;8243;49.048;8.396;2022-12-18T05:42:25;29.47;;;15.17;;
16270;SDS011;8243;49.048;8.396;2022-12-18T05:44:51;27.40;;;14.60;;
16270;SDS011;8243;49.048;8.396;2022-12-18T05:47:16;24.67;;;15.13;;
16270;SDS011;8243;49.048;8.396;2022-12-18T05:49:42;26.83;;;15.67;;
16270;SDS011;8243;49.048;8.396;2022-12-18T05:52:07;29.00;;;17.23;;
16270;SDS011;8243;49.048;8.396;2022-12-18T05:54:33;26.48;;;15.07;;
16270;SDS011;8243;49.048;8.396;2022-12-18T05:56:59;35.70;;;16.77;;
16270;SDS011;8243;49.048;8.396;2022-12-18T05:59:25;31.37;;;17.03;;
16270;SDS011;8243;49.048;8.396;2022-12-18T06:01:50;31.73;;;16.70;;
16270;SDS011;8243;49.048;8.396;2022-12-18T06:04:16;34.50;;;17.70;;
16270;SDS011;8243;49.048;8.396;2022-12-18T06:06:42;33.50;;;18.37;;
16270;SDS011;8243;49.048;8.396;2022-12-18T06:09:07;32.40;;;18.40;;
16270;SDS011;8243;49.048;8.396;2022-12-18T06:11:35;37.90;;;18.65;;
16270;SDS011;8243;49.048;8.396;2022-12-18T06:14:01;38.90;;;20.15;;
16270;SDS011;8243;49.048;8.396;2022-12-18T06:16:29;37.53;;;19.27;;
16270;SDS011;8243;49.048;8.396;2022-12-18T06:18:56;33.70;;;18.33;;
16270;SDS011;8243;49.048;8.396;2022-12-18T06:21:22;44.17;;;19.95;;
16270;SDS011;8243;49.048;8.396;2022-12-18T06:23:47;34.80;;;18.53;;
16270;SDS011;8243;49.048;8.396;2022-12-18T06:26:13;38.80;;;18.87;;
16270;SDS011;8243;49.048;8.396;2022-12-18T06:28:40;37.75;;;19.15;;
16270;SDS011;8243;49.048;8.396;2022-12-18T06:31:06;31.40;;;16.73;;
16270;SDS011;8243;49.048;8.396;2022-12-18T06:33:32;37.78;;;18.83;;
16270;SDS011;8243;49.048;8.396;2022-12-18T06:36:06;35.00;;;18.67;;
16270;SDS011;8243;49.048;8.396;2022-12-18T06:38:35;39.03;;;19.98;;
16270;SDS011;8243;49.048;8.396;2022-12-18T06:41:12;34.88;;;19.02;;
16270;SDS011;8243;49.048;8.396;2022-12-18T06:43:39;37.15;;;19.27;;
16270;SDS011;8243;49.048;8.396;2022-12-18T06:46:05;40.60;;;20.03;;
16270;SDS011;8243;49.048;8.396;2022-12-18T06:48:31;38.28;;;19.80;;
16270;SDS011;8243;49.048;8.396;2022-12-18T06:50:57;39.13;;;20.80;;
16270;SDS011;8243;49.048;8.396;2022-12-18T06:53:23;39.80;;;20.07;;
16270;SDS011;8243;49.048;8.396;2022-12-18T06:55:49;37.37;;;20.60;;
16270;SDS011;8243;49.048;8.396;2022-12-18T06:58:14;35.83;;;19.13;;
16270;SDS011;8243;49.048;8.396;2022-12-18T07:00:40;39.67;;;19.67;;
16270;SDS011;8243;49.048;8.396;2022-12-18T07:03:06;39.90;;;20.63;;
16270;SDS011;8243;49.048;8.396;2022-12-18T07:05:31;41.80;;;21.97;;
16270;SDS011;8243;49.048;8.396;2022-12-18T07:07:57;35.23;;;19.73;;
16270;SDS011;8243;49.048;8.396;2022-12-18T07:10:23;36.83;;;19.50;;
16270;SDS011;8243;49.048;8.396;2022-12-18T07:12:49;36.43;;;20.37;;
16270;SDS011;8243;49.048;8.396;2022-12-18T07:15:15;38.73;;;20.27;;
16270;SDS011;8243;49.048;8.396;2022-12-18T07:17:40;38.00;;;20.97;;
16270;SDS011;8243;49.048;8.396;2022-12-18T07:20:06;34.33;;;20.37;;
16270;SDS011;8243;49.048;8.396;2022-12-18T07:22:32;36.33;;;19.37;;
16270;SDS011;8243;49.048;8.396;2022-12-18T07:24:57;36.43;;;19.27;;
16270;SDS011;8243;49.048;8.396;2022-12-18T07:27:23;35.37;;;19.43;;
16270;SDS011;8243;49.048;8.396;2022-12-18T07:29:49;36.50;;;20.23;;
16270;SDS011;8243;49.048;8.396;2022-12-18T07:32:14;34.13;;;19.17;;
16270;SDS011;8243;49.048;8.396;2022-12-18T07:34:40;36.47;;;19.10;;
16270;SDS011;8243;49.048;8.396;2022-12-18T07:37:06;34.67;;;19.03;;
16270;SDS011;8243;49.048;8.396;2022-12-18T07:39:32;37.77;;;20.53;;
16270;SDS011;8243;49.048;8.396;2022-12-18T07:41:57;36.37;;;20.00;;
16270;SDS011;8243;49.048;8.396;2022-12-18T07:44:41;32.22;;;17.58;;
16270;SDS011;8243;49.048;8.396;2022-12-18T07:47:07;34.80;;;18.00;;
16270;SDS011;8243;49.048;8.396;2022-12-18T07:49:33;41.57;;;21.17;;
16270;SDS011;8243;49.048;8.396;2022-12-18T07:51:58;33.00;;;18.33;;
16270;SDS011;8243;49.048;8.396;2022-12-18T07:54:24;35.13;;;19.40;;
16270;SDS011;8243;49.048;8.396;2022-12-18T07:56:50;34.63;;;19.10;;
16270;SDS011;8243;49.048;8.396;2022-12-18T07:59:16;31.73;;;18.77;;
16270;SDS011;8243;49.048;8.396;2022-12-18T08:01:42;33.20;;;19.27;;
16270;SDS011;8243;49.048;8.396;2022-12-18T08:04:08;30.87;;;18.27;;
16270;SDS011;8243;49.048;8.396;2022-12-18T08:06:34;34.33;;;19.27;;
16270;SDS011;8243;49.048;8.396;2022-12-18T08:09:00;35.63;;;19.30;;
16270;SDS011;8243;49.048;8.396;2022-12-18T08:11:26;33.57;;;18.40;;
16270;SDS011;8243;49.048;8.396;2022-12-18T08:13:53;31.70;;;17.63;;
16270;SDS011;8243;49.048;8.396;2022-12-18T08:16:19;36.45;;;20.88;;
16270;SDS011;8243;49.048;8.396;2022-12-18T08:18:45;36.97;;;19.13;;
16270;SDS011;8243;49.048;8.396;2022-12-18T08:21:12;32.20;;;18.40;;
16270;SDS011;8243;49.048;8.396;2022-12-18T08:23:40;33.60;;;18.83;;
16270;SDS011;8243;49.048;8.396;2022-12-18T08:26:06;31.23;;;18.27;;
16270;SDS011;8243;49.048;8.396;2022-12-18T08:28:32;34.37;;;18.20;;
16270;SDS011;8243;49.048;8.396;2022-12-18T08:30:58;34.40;;;19.20;;
16270;SDS011;8243;49.048;8.396;2022-12-18T08:33:24;35.20;;;19.70;;
16270;SDS011;8243;49.048;8.396;2022-12-18T08:35:51;37.63;;;19.97;;
16270;SDS011;8243;49.048;8.396;2022-12-18T08:38:17;33.87;;;19.10;;
16270;SDS011;8243;49.048;8.396;2022-12-18T08:40:42;33.93;;;18.57;;
16270;SDS011;8243;49.048;8.396;2022-12-18T08:43:09;39.07;;;20.67;;
16270;SDS011;8243;49.048;8.396;2022-12-18T08:45:54;35.60;;;18.93;;
16270;SDS011;8243;49.048;8.396;2022-12-18T08:48:20;37.33;;;19.97;;
16270;SDS011;8243;49.048;8.396;2022-12-18T08:50:53;37.93;;;20.73;;
16270;SDS011;8243;49.048;8.396;2022-12-18T08:53:23;39.40;;;20.53;;
16270;SDS011;8243;49.048;8.396;2022-12-18T08:55:49;37.50;;;20.30;;
16270;SDS011;8243;49.048;8.396;2022-12-18T08:58:14;38.93;;;20.37;;
16270;SDS011;8243;49.048;8.396;2022-12-18T09:00:40;40.50;;;20.77;;
16270;SDS011;8243;49.048;8.396;2022-12-18T09:03:10;31.07;;;18.70;;
16270;SDS011;8243;49.048;8.396;2022-12-18T09:05:39;41.63;;;21.03;;
16270;SDS011;8243;49.048;8.396;2022-12-18T09:08:05;45.07;;;23.17;;
16270;SDS011;8243;49.048;8.396;2022-12-18T09:10:31;33.43;;;18.43;;
16270;SDS011;8243;49.048;8.396;2022-12-18T09:12:57;33.77;;;17.80;;
16270;SDS011;8243;49.048;8.396;2022-12-18T09:15:22;38.10;;;19.73;;
16270;SDS011;8243;49.048;8.396;2022-12-18T09:17:48;36.30;;;20.40;;
16270;SDS011;8243;49.048;8.396;2022-12-18T09:20:14;36.93;;;19.83;;
16270;SDS011;8243;49.048;8.396;2022-12-18T09:22:41;34.53;;;19.00;;
16270;SDS011;8243;49.048;8.396;2022-12-18T09:25:06;37.57;;;20.13;;
16270;SDS011;8243;49.048;8.396;2022-12-18T09:27:35;37.90;;;21.43;;
16270;SDS011;8243;49.048;8.396;2022-12-18T09:30:00;36.87;;;20.53;;
16270;SDS011;8243;49.048;8.396;2022-12-18T09:32:26;32.13;;;19.87;;
16270;SDS011;8243;49.048;8.396;2022-12-18T09:34:52;35.07;;;19.97;;
16270;SDS011;8243;49.048;8.396;2022-12-18T09:37:18;34.23;;;21.03;;
16270;SDS011;8243;49.048;8.396;2022-12-18T09:39:43;33.67;;;20.63;;
16270;SDS011;8243;49.048;8.396;2022-12-18T09:42:12;36.10;;;20.20;;
16270;SDS011;8243;49.048;8.396;2022-12-18T09:44:48;38.53;;;19.70;;
16270;SDS011;8243;49.048;8.396;2022-12-18T09:49:49;39.00;;;21.87;;
16270;SDS011;8243;49.048;8.396;2022-12-18T09:52:23;34.17;;;20.13;;
16270;SDS011;8243;49.048;8.396;2022-12-18T09:55:05;32.77;;;19.43;;
16270;SDS011;8243;49.048;8.396;2022-12-18T09:57:55;37.33;;;19.50;;
16270;SDS011;8243;49.048;8.396;2022-12-18T10:00:26;33.40;;;19.40;;
16270;SDS011;8243;49.048;8.396;2022-12-18T10:02:52;32.93;;;19.90;;
16270;SDS011;8243;49.048;8.396;2022-12-18T10:05:37;32.77;;;19.17;;
16270;SDS011;8243;49.048;8.396;2022-12-18T10:10:52;35.83;;;20.77;;
16270;SDS011;8243;49.048;8.396;2022-12-18T10:13:30;34.63;;;20.40;;
16270;SDS011;8243;49.048;8.396;2022-12-18T10:19:37;35.43;;;20.27;;
16270;SDS011;8243;49.048;8.396;2022-12-18T10:26:59;32.43;;;20.10;;
16270;SDS011;8243;49.048;8.396;2022-12-18T10:29:50;35.43;;;19.70;;
16270;SDS011;8243;49.048;8.396;2022-12-18T10:32:17;33.87;;;19.67;;
16270;SDS011;8243;49.048;8.396;2022-12-18T10:34:48;31.60;;;18.83;;
16270;SDS011;8243;49.048;8.396;2022-12-18T10:37:18;36.27;;;19.87;;
16270;SDS011;8243;49.048;8.396;2022-12-18T10:39:46;37.27;;;21.73;;
16270;SDS011;8243;49.048;8.396;2022-12-18T10:42:30;39.00;;;22.03;;
16270;SDS011;8243;49.048;8.396;2022-12-18T10:47:51;34.70;;;20.33;;
16270;SDS011;8243;49.048;8.396;2022-12-18T10:52:59;33.60;;;20.43;;
16270;SDS011;8243;49.048;8.396;2022-12-18T10:55:33;38.93;;;21.33;;
16270;SDS011;8243;49.048;8.396;2022-12-18T11:01:01;35.50;;;20.57;;
16270;SDS011;8243;49.048;8.396;2022-12-18T11:03:33;36.43;;;20.87;;
16270;SDS011;8243;49.048;8.396;2022-12-18T11:08:32;37.03;;;21.87;;
16270;SDS011;8243;49.048;8.396;2022-12-18T11:10:58;38.83;;;21.77;;
16270;SDS011;8243;49.048;8.396;2022-12-18T11:13:24;34.77;;;21.47;;
16270;SDS011;8243;49.048;8.396;2022-12-18T11:15:52;39.50;;;22.07;;
16270;SDS011;8243;49.048;8.396;2022-12-18T11:20:53;34.40;;;20.60;;
16270;SDS011;8243;49.048;8.396;2022-12-18T11:23:24;41.27;;;22.70;;
16270;SDS011;8243;49.048;8.396;2022-12-18T11:26:01;38.10;;;22.03;;
16270;SDS011;8243;49.048;8.396;2022-12-18T11:28:33;39.63;;;22.57;;
16270;SDS011;8243;49.048;8.396;2022-12-18T11:33:58;38.03;;;22.23;;
16270;SDS011;8243;49.048;8.396;2022-12-18T11:36:43;32.23;;;20.63;;
16270;SDS011;8243;49.048;8.396;2022-12-18T11:45:00;36.67;;;21.20;;
16270;SDS011;8243;49.048;8.396;2022-12-18T11:47:39;34.93;;;20.67;;
16270;SDS011;8243;49.048;8.396;2022-12-18T11:50:26;36.67;;;21.33;;
16270;SDS011;8243;49.048;8.396;2022-12-18T11:52:58;32.57;;;20.27;;
16270;SDS011;8243;49.048;8.396;2022-12-18T11:58:05;29.97;;;19.43;;
16270;SDS011;8243;49.048;8.396;2022-12-18T12:00:38;31.40;;;20.27;;
16270;SDS011;8243;49.048;8.396;2022-12-18T12:03:20;30.90;;;20.27;;
16270;SDS011;8243;49.048;8.396;2022-12-18T12:06:06;31.50;;;20.23;;
16270;SDS011;8243;49.048;8.396;2022-12-18T12:08:55;34.73;;;22.47;;
16270;SDS011;8243;49.048;8.396;2022-12-18T12:11:45;36.10;;;23.47;;
16270;SDS011;8243;49.048;8.396;2022-12-18T12:20:16;29.60;;;18.90;;
16270;SDS011;8243;49.048;8.396;2022-12-18T12:29:00;32.83;;;20.40;;
16270;SDS011;8243;49.048;8.396;2022-12-18T12:37:36;39.23;;;20.43;;
16270;SDS011;8243;49.048;8.396;2022-12-18T12:40:19;35.83;;;21.93;;
16270;SDS011;8243;49.048;8.396;2022-12-18T12:42:52;33.13;;;20.13;;
16270;SDS011;8243;49.048;8.396;2022-12-18T12:48:48;28.57;;;17.13;;
16270;SDS011;8243;49.048;8.396;2022-12-18T12:51:21;33.60;;;19.73;;
16270;SDS011;8243;49.048;8.396;2022-12-18T12:53:51;32.40;;;20.73;;
16270;SDS011;8243;49.048;8.396;2022-12-18T12:56:19;35.23;;;19.87;;
16270;SDS011;8243;49.048;8.396;2022-12-18T12:58:52;33.50;;;20.53;;
16270;SDS011;8243;49.048;8.396;2022-12-18T13:01:26;33.83;;;21.17;;
16270;SDS011;8243;49.048;8.396;2022-12-18T13:04:12;33.37;;;20.20;;
16270;SDS011;8243;49.048;8.396;2022-12-18T13:06:46;37.17;;;21.23;;
16270;SDS011;8243;49.048;8.396;2022-12-18T13:09:31;31.83;;;18.63;;
16270;SDS011;8243;49.048;8.396;2022-12-18T13:12:01;31.10;;;18.70;;
16270;SDS011;8243;49.048;8.396;2022-12-18T13:14:55;30.13;;;18.70;;
16270;SDS011;8243;49.048;8.396;2022-12-18T13:17:38;35.30;;;20.27;;
16270;SDS011;8243;49.048;8.396;2022-12-18T13:22:46;30.73;;;20.33;;
16270;SDS011;8243;49.048;8.396;2022-12-18T13:25:33;29.03;;;19.63;;
16270;SDS011;8243;49.048;8.396;2022-12-18T13:28:08;32.97;;;19.77;;
16270;SDS011;8243;49.048;8.396;2022-12-18T13:38:22;32.47;;;20.43;;
16270;SDS011;8243;49.048;8.396;2022-12-18T13:48:25;31.40;;;18.53;;
16270;SDS011;8243;49.048;8.396;2022-12-18T13:51:04;30.40;;;18.97;;
16270;SDS011;8243;49.048;8.396;2022-12-18T13:53:34;34.13;;;19.70;;
16270;SDS011;8243;49.048;8.396;2022-12-18T13:56:21;32.57;;;20.30;;
16270;SDS011;8243;49.048;8.396;2022-12-18T13:59:34;34.50;;;20.30;;
16270;SDS011;8243;49.048;8.396;2022-12-18T14:04:24;37.07;;;20.23;;
16270;SDS011;8243;49.048;8.396;2022-12-18T14:07:03;37.13;;;22.90;;
16270;SDS011;8243;49.048;8.396;2022-12-18T14:09:31;35.47;;;21.27;;
16270;SDS011;8243;49.048;8.396;2022-12-18T14:12:02;34.17;;;20.50;;
16270;SDS011;8243;49.048;8.396;2022-12-18T14:14:48;34.77;;;19.70;;
16270;SDS011;8243;49.048;8.396;2022-12-18T14:17:15;32.13;;;20.13;;
16270;SDS011;8243;49.048;8.396;2022-12-18T14:19:43;38.60;;;21.87;;
16270;SDS011;8243;49.048;8.396;2022-12-18T14:22:20;35.57;;;21.97;;
16270;SDS011;8243;49.048;8.396;2022-12-18T14:27:38;37.90;;;22.07;;
16270;SDS011;8243;49.048;8.396;2022-12-18T14:30:24;35.83;;;22.73;;
16270;SDS011;8243;49.048;8.396;2022-12-18T14:35:26;40.90;;;21.73;;
16270;SDS011;8243;49.048;8.396;2022-12-18T14:37:52;40.10;;;22.13;;
16270;SDS011;8243;49.048;8.396;2022-12-18T14:40:17;40.80;;;23.27;;
16270;SDS011;8243;49.048;8.396;2022-12-18T14:42:43;36.17;;;20.23;;
16270;SDS011;8243;49.048;8.396;2022-12-18T14:48:51;36.97;;;22.20;;
16270;SDS011;8243;49.048;8.396;2022-12-18T14:53:48;38.87;;;21.97;;
16270;SDS011;8243;49.048;8.396;2022-12-18T14:56:24;39.20;;;21.47;;
16270;SDS011;8243;49.048;8.396;2022-12-18T14:58:53;38.80;;;20.70;;
16270;SDS011;8243;49.048;8.396;2022-12-18T15:01:21;40.30;;;22.83;;
16270;SDS011;8243;49.048;8.396;2022-12-18T15:03:59;38.47;;;22.43;;
16270;SDS011;8243;49.048;8.396;2022-12-18T15:08:57;40.93;;;23.70;;
16270;SDS011;8243;49.048;8.396;2022-12-18T15:11:28;45.80;;;24.87;;
16270;SDS011;8243;49.048;8.396;2022-12-18T15:17:16;46.57;;;24.57;;
16270;SDS011;8243;49.048;8.396;2022-12-18T15:19:44;42.27;;;24.83;;
16270;SDS011;8243;49.048;8.396;2022-12-18T15:22:19;47.00;;;27.17;;
16270;SDS011;8243;49.048;8.396;2022-12-18T15:24:50;47.23;;;26.13;;
16270;SDS011;8243;49.048;8.396;2022-12-18T15:27:31;42.07;;;25.67;;
16270;SDS011;8243;49.048;8.396;2022-12-18T15:32:38;42.97;;;27.00;;
16270;SDS011;8243;49.048;8.396;2022-12-18T15:37:38;48.20;;;26.43;;
16270;SDS011;8243;49.048;8.396;2022-12-18T15:40:04;50.90;;;31.43;;
16270;SDS011;8243;49.048;8.396;2022-12-18T15:42:32;44.27;;;27.07;;
16270;SDS011;8243;49.048;8.396;2022-12-18T15:45:17;45.50;;;27.77;;
16270;SDS011;8243;49.048;8.396;2022-12-18T15:47:43;46.67;;;27.07;;
16270;SDS011;8243;49.048;8.396;2022-12-18T15:50:08;47.10;;;28.33;;
16270;SDS011;8243;49.048;8.396;2022-12-18T15:52:39;43.20;;;27.13;;
16270;SDS011;8243;49.048;8.396;2022-12-18T15:55:13;46.53;;;27.97;;
16270;SDS011;8243;49.048;8.396;2022-12-18T15:57:58;47.20;;;28.27;;
16270;SDS011;8243;49.048;8.396;2022-12-18T16:00:24;50.07;;;28.47;;
16270;SDS011;8243;49.048;8.396;2022-12-18T16:02:50;45.80;;;28.87;;
16270;SDS011;8243;49.048;8.396;2022-12-18T16:05:16;51.40;;;30.90;;
16270;SDS011;8243;49.048;8.396;2022-12-18T16:07:43;48.83;;;28.90;;
16270;SDS011;8243;49.048;8.396;2022-12-18T16:10:09;48.60;;;27.47;;
16270;SDS011;8243;49.048;8.396;2022-12-18T16:12:36;46.77;;;28.10;;
16270;SDS011;8243;49.048;8.396;2022-12-18T16:15:02;50.77;;;30.03;;
16270;SDS011;8243;49.048;8.396;2022-12-18T16:17:29;49.37;;;29.00;;
16270;SDS011;8243;49.048;8.396;2022-12-18T16:19:54;49.33;;;27.83;;
16270;SDS011;8243;49.048;8.396;2022-12-18T16:24:50;47.10;;;27.67;;
16270;SDS011;8243;49.048;8.396;2022-12-18T16:27:17;47.60;;;27.43;;
16270;SDS011;8243;49.048;8.396;2022-12-18T16:29:43;47.83;;;28.60;;
16270;SDS011;8243;49.048;8.396;2022-12-18T16:32:11;45.40;;;28.43;;
16270;SDS011;8243;49.048;8.396;2022-12-18T16:34:39;47.90;;;28.80;;
16270;SDS011;8243;49.048;8.396;2022-12-18T16:37:08;47.30;;;28.33;;
16270;SDS011;8243;49.048;8.396;2022-12-18T16:39:35;44.27;;;26.63;;
16270;SDS011;8243;49.048;8.396;2022-12-18T16:44:44;45.50;;;27.93;;
16270;SDS011;8243;49.048;8.396;2022-12-18T16:47:10;46.63;;;27.30;;
16270;SDS011;8243;49.048;8.396;2022-12-18T16:49:36;45.73;;;25.53;;
16270;SDS011;8243;49.048;8.396;2022-12-18T16:52:02;48.10;;;26.47;;
16270;SDS011;8243;49.048;8.396;2022-12-18T16:54:32;51.30;;;28.53;;
16270;SDS011;8243;49.048;8.396;2022-12-18T16:57:00;48.53;;;27.40;;
16270;SDS011;8243;49.048;8.396;2022-12-18T16:59:26;45.80;;;26.13;;
16270;SDS011;8243;49.048;8.396;2022-12-18T17:01:53;45.10;;;25.97;;
16270;SDS011;8243;49.048;8.396;2022-12-18T17:04:19;50.53;;;26.73;;
16270;SDS011;8243;49.048;8.396;2022-12-18T17:06:45;42.23;;;25.63;;